Kleberg County Airport


Codes: KIKG/
Name: Kleberg County Airport
City: Kingsville
Country: United States
Elevation: 130 ft.

Photos at Kleberg County Airport


   Photos courtesy of SpottingLog. You can add your own sightings and photos by signing up for a free trial today.



No photos found.

Weather at Kleberg County Airport


Time (UTC)DescriptionTempratureWindCloud coverageVisibilityPressureHumidity
26-Jun-2024 00:00Scattered Clouds33°C13 mph, SE50%10000m1011hPa65%
26-Jun-2024 03:00Scattered Clouds30°C13 mph, SE29%10000m1011hPa75%
26-Jun-2024 06:00Few Clouds27°C11 mph, SE11%10000m1013hPa81%
26-Jun-2024 09:00Clear Sky26°C9 mph, S0%10000m1011hPa86%
26-Jun-2024 12:00Clear Sky25°C4 mph, SE0%10000m1011hPa91%
26-Jun-2024 15:00Clear Sky30°C13 mph, S1%10000m1011hPa67%
26-Jun-2024 18:00Few Clouds34°C9 mph, SE14%10000m1011hPa51%
26-Jun-2024 21:00Few Clouds35°C16 mph, SE24%10000m1009hPa49%
27-Jun-2024 00:00Scattered Clouds31°C16 mph, SE31%10000m1009hPa66%
27-Jun-2024 03:00Clear Sky27°C11 mph, SE4%10000m1009hPa81%
27-Jun-2024 06:00Clear Sky27°C9 mph, SE2%10000m1010hPa84%
27-Jun-2024 09:00Clear Sky26°C7 mph, S0%10000m1009hPa89%
27-Jun-2024 12:00Clear Sky25°C7 mph, SE0%10000m1009hPa91%
27-Jun-2024 15:00Clear Sky30°C9 mph, S1%10000m1010hPa66%
27-Jun-2024 18:00Clear Sky34°C9 mph, SE3%10000m1009hPa50%
27-Jun-2024 21:00Broken Clouds33°C16 mph, SE73%10000m1007hPa54%
28-Jun-2024 00:00Broken Clouds31°C16 mph, SE69%10000m1006hPa64%
28-Jun-2024 03:00Scattered Clouds28°C13 mph, SE40%10000m1007hPa78%
28-Jun-2024 06:00Few Clouds27°C11 mph, SE21%10000m1008hPa80%
28-Jun-2024 09:00Light Rain26°C7 mph, SE45%10000m1007hPa87%
28-Jun-2024 12:00Few Clouds26°C9 mph, SE22%10000m1008hPa89%
28-Jun-2024 15:00Clear Sky31°C16 mph, S9%10000m1009hPa67%
28-Jun-2024 18:00Scattered Clouds34°C16 mph, S38%10000m1007hPa49%
28-Jun-2024 21:00Light Rain31°C22 mph, SE66%10000m1006hPa70%
29-Jun-2024 00:00Light Rain31°C20 mph, SE50%10000m1006hPa67%
29-Jun-2024 03:00Scattered Clouds28°C16 mph, SE28%10000m1009hPa82%
29-Jun-2024 06:00Few Clouds28°C16 mph, SE14%10000m1010hPa84%
29-Jun-2024 09:00Few Clouds27°C13 mph, SE12%10000m1011hPa82%
29-Jun-2024 12:00Clear Sky26°C11 mph, SE7%10000m1011hPa85%
29-Jun-2024 15:00Few Clouds31°C16 mph, SE14%10000m1014hPa65%
29-Jun-2024 18:00Scattered Clouds34°C18 mph, SE34%10000m1014hPa54%
29-Jun-2024 21:00Broken Clouds33°C16 mph, SE69%10000m1013hPa60%
30-Jun-2024 00:00Broken Clouds31°C18 mph, SE57%10000m1014hPa66%
30-Jun-2024 03:00Clear Sky28°C16 mph, SE8%10000m1015hPa81%
30-Jun-2024 06:00Scattered Clouds27°C13 mph, SE27%10000m1017hPa81%
30-Jun-2024 09:00Scattered Clouds26°C9 mph, SE43%10000m1017hPa84%
30-Jun-2024 12:00Scattered Clouds26°C7 mph, SE48%10000m1018hPa80%
30-Jun-2024 15:00Overcast Clouds30°C11 mph, SE85%10000m1019hPa60%
30-Jun-2024 18:00Scattered Clouds35°C11 mph, SE49%10000m1018hPa45%
30-Jun-2024 21:00Clear Sky35°C16 mph, SE3%10000m1016hPa46%